sensor_id;sensor_type;location;lat;lon;timestamp;P1;durP1;ratioP1;P2;durP2;ratioP2
21354;SDS011;10835;50.148;19.760;2023-08-17T00:00:58;7.38;;;5.40;;
21354;SDS011;10835;50.148;19.760;2023-08-17T00:03:27;6.10;;;5.35;;
21354;SDS011;10835;50.148;19.760;2023-08-17T00:05:56;6.70;;;5.57;;
21354;SDS011;10835;50.148;19.760;2023-08-17T00:08:24;7.78;;;6.22;;
21354;SDS011;10835;50.148;19.760;2023-08-17T00:10:53;8.68;;;5.82;;
21354;SDS011;10835;50.148;19.760;2023-08-17T00:13:21;10.20;;;6.70;;
21354;SDS011;10835;50.148;19.760;2023-08-17T00:15:50;9.77;;;6.30;;
21354;SDS011;10835;50.148;19.760;2023-08-17T00:18:18;9.20;;;5.60;;
21354;SDS011;10835;50.148;19.760;2023-08-17T00:20:48;11.15;;;6.88;;
21354;SDS011;10835;50.148;19.760;2023-08-17T00:23:16;9.50;;;6.70;;
21354;SDS011;10835;50.148;19.760;2023-08-17T00:25:47;6.80;;;5.70;;
21354;SDS011;10835;50.148;19.760;2023-08-17T00:28:15;8.27;;;6.10;;
21354;SDS011;10835;50.148;19.760;2023-08-17T00:30:43;8.13;;;6.47;;
21354;SDS011;10835;50.148;19.760;2023-08-17T00:33:12;7.78;;;6.03;;
21354;SDS011;10835;50.148;19.760;2023-08-17T00:35:41;8.30;;;5.80;;
21354;SDS011;10835;50.148;19.760;2023-08-17T00:38:11;10.80;;;6.70;;
21354;SDS011;10835;50.148;19.760;2023-08-17T00:40:40;6.95;;;5.85;;
21354;SDS011;10835;50.148;19.760;2023-08-17T00:43:08;7.32;;;5.60;;
21354;SDS011;10835;50.148;19.760;2023-08-17T00:45:37;6.28;;;5.63;;
21354;SDS011;10835;50.148;19.760;2023-08-17T00:48:05;10.90;;;6.05;;
21354;SDS011;10835;50.148;19.760;2023-08-17T00:50:35;8.20;;;5.78;;
21354;SDS011;10835;50.148;19.760;2023-08-17T00:53:04;8.18;;;5.47;;
21354;SDS011;10835;50.148;19.760;2023-08-17T00:55:40;6.65;;;5.25;;
21354;SDS011;10835;50.148;19.760;2023-08-17T00:58:09;7.63;;;4.80;;
21354;SDS011;10835;50.148;19.760;2023-08-17T01:00:40;7.63;;;5.47;;
21354;SDS011;10835;50.148;19.760;2023-08-17T01:03:11;7.40;;;5.40;;
21354;SDS011;10835;50.148;19.760;2023-08-17T01:05:40;7.38;;;5.63;;
21354;SDS011;10835;50.148;19.760;2023-08-17T01:08:08;8.60;;;5.18;;
21354;SDS011;10835;50.148;19.760;2023-08-17T01:10:37;8.02;;;5.57;;
21354;SDS011;10835;50.148;19.760;2023-08-17T01:13:20;7.28;;;5.75;;
21354;SDS011;10835;50.148;19.760;2023-08-17T01:15:55;7.35;;;5.32;;
21354;SDS011;10835;50.148;19.760;2023-08-17T01:18:26;8.48;;;5.40;;
21354;SDS011;10835;50.148;19.760;2023-08-17T01:21:00;8.35;;;5.90;;
21354;SDS011;10835;50.148;19.760;2023-08-17T01:23:33;6.95;;;5.13;;
21354;SDS011;10835;50.148;19.760;2023-08-17T01:26:04;7.43;;;4.88;;
21354;SDS011;10835;50.148;19.760;2023-08-17T01:28:33;6.45;;;4.75;;
21354;SDS011;10835;50.148;19.760;2023-08-17T01:31:03;7.78;;;5.82;;
21354;SDS011;10835;50.148;19.760;2023-08-17T01:33:39;6.45;;;5.18;;
21354;SDS011;10835;50.148;19.760;2023-08-17T01:36:17;8.05;;;5.40;;
21354;SDS011;10835;50.148;19.760;2023-08-17T01:38:55;7.45;;;5.40;;
21354;SDS011;10835;50.148;19.760;2023-08-17T01:41:24;6.07;;;5.22;;
21354;SDS011;10835;50.148;19.760;2023-08-17T01:43:54;5.25;;;4.28;;
21354;SDS011;10835;50.148;19.760;2023-08-17T01:46:24;6.90;;;5.43;;
21354;SDS011;10835;50.148;19.760;2023-08-17T01:48:57;6.22;;;5.30;;
21354;SDS011;10835;50.148;19.760;2023-08-17T01:51:26;7.47;;;5.22;;
21354;SDS011;10835;50.148;19.760;2023-08-17T01:53:56;6.55;;;5.35;;
21354;SDS011;10835;50.148;19.760;2023-08-17T01:56:25;6.57;;;5.45;;
21354;SDS011;10835;50.148;19.760;2023-08-17T01:58:53;6.78;;;5.75;;
21354;SDS011;10835;50.148;19.760;2023-08-17T02:01:22;7.78;;;5.88;;
21354;SDS011;10835;50.148;19.760;2023-08-17T02:03:50;7.97;;;5.72;;
21354;SDS011;10835;50.148;19.760;2023-08-17T02:06:19;9.65;;;5.38;;
21354;SDS011;10835;50.148;19.760;2023-08-17T02:08:47;6.57;;;5.05;;
21354;SDS011;10835;50.148;19.760;2023-08-17T02:11:17;6.13;;;4.63;;
21354;SDS011;10835;50.148;19.760;2023-08-17T02:13:45;6.13;;;5.47;;
21354;SDS011;10835;50.148;19.760;2023-08-17T02:16:14;9.38;;;6.15;;
21354;SDS011;10835;50.148;19.760;2023-08-17T02:18:42;9.75;;;5.82;;
21354;SDS011;10835;50.148;19.760;2023-08-17T02:21:11;10.07;;;6.20;;
21354;SDS011;10835;50.148;19.760;2023-08-17T02:23:39;6.45;;;5.22;;
21354;SDS011;10835;50.148;19.760;2023-08-17T02:26:07;8.68;;;5.55;;
21354;SDS011;10835;50.148;19.760;2023-08-17T02:28:37;6.65;;;4.97;;
21354;SDS011;10835;50.148;19.760;2023-08-17T02:31:06;9.25;;;6.13;;
21354;SDS011;10835;50.148;19.760;2023-08-17T02:33:34;8.57;;;6.03;;
21354;SDS011;10835;50.148;19.760;2023-08-17T02:36:05;7.00;;;5.40;;
21354;SDS011;10835;50.148;19.760;2023-08-17T02:38:33;7.43;;;6.00;;
21354;SDS011;10835;50.148;19.760;2023-08-17T02:41:02;9.73;;;5.82;;
21354;SDS011;10835;50.148;19.760;2023-08-17T02:43:30;6.70;;;5.53;;
21354;SDS011;10835;50.148;19.760;2023-08-17T02:46:00;7.57;;;5.05;;
21354;SDS011;10835;50.148;19.760;2023-08-17T02:48:29;6.88;;;5.70;;
21354;SDS011;10835;50.148;19.760;2023-08-17T02:50:59;8.73;;;6.20;;
21354;SDS011;10835;50.148;19.760;2023-08-17T02:53:27;8.13;;;6.10;;
21354;SDS011;10835;50.148;19.760;2023-08-17T02:55:55;6.28;;;5.65;;
21354;SDS011;10835;50.148;19.760;2023-08-17T02:58:24;8.18;;;5.45;;
21354;SDS011;10835;50.148;19.760;2023-08-17T03:00:52;8.68;;;6.05;;
21354;SDS011;10835;50.148;19.760;2023-08-17T03:03:22;7.72;;;5.78;;
21354;SDS011;10835;50.148;19.760;2023-08-17T03:05:51;8.00;;;6.07;;
21354;SDS011;10835;50.148;19.760;2023-08-17T03:08:19;7.45;;;6.05;;
21354;SDS011;10835;50.148;19.760;2023-08-17T03:10:48;8.10;;;5.88;;
21354;SDS011;10835;50.148;19.760;2023-08-17T03:13:17;8.63;;;6.15;;
21354;SDS011;10835;50.148;19.760;2023-08-17T03:15:45;7.47;;;6.13;;
21354;SDS011;10835;50.148;19.760;2023-08-17T03:18:15;9.68;;;5.70;;
21354;SDS011;10835;50.148;19.760;2023-08-17T03:20:45;8.77;;;6.15;;
21354;SDS011;10835;50.148;19.760;2023-08-17T03:23:14;6.88;;;6.03;;
21354;SDS011;10835;50.148;19.760;2023-08-17T03:25:42;5.78;;;5.18;;
21354;SDS011;10835;50.148;19.760;2023-08-17T03:28:12;6.72;;;5.75;;
21354;SDS011;10835;50.148;19.760;2023-08-17T03:30:41;10.18;;;6.20;;
21354;SDS011;10835;50.148;19.760;2023-08-17T03:33:10;7.85;;;5.88;;
21354;SDS011;10835;50.148;19.760;2023-08-17T03:35:38;6.22;;;4.68;;
21354;SDS011;10835;50.148;19.760;2023-08-17T03:38:09;7.03;;;5.60;;
21354;SDS011;10835;50.148;19.760;2023-08-17T03:40:37;5.93;;;5.28;;
21354;SDS011;10835;50.148;19.760;2023-08-17T03:43:06;7.15;;;5.25;;
21354;SDS011;10835;50.148;19.760;2023-08-17T03:45:35;6.43;;;5.35;;
21354;SDS011;10835;50.148;19.760;2023-08-17T03:48:03;7.10;;;5.70;;
21354;SDS011;10835;50.148;19.760;2023-08-17T03:50:33;9.75;;;6.43;;
21354;SDS011;10835;50.148;19.760;2023-08-17T03:53:02;7.68;;;5.43;;
21354;SDS011;10835;50.148;19.760;2023-08-17T03:55:32;6.82;;;5.88;;
21354;SDS011;10835;50.148;19.760;2023-08-17T03:58:00;9.32;;;5.47;;
21354;SDS011;10835;50.148;19.760;2023-08-17T04:00:29;7.93;;;5.97;;
21354;SDS011;10835;50.148;19.760;2023-08-17T04:02:58;11.18;;;6.25;;
21354;SDS011;10835;50.148;19.760;2023-08-17T04:05:27;7.40;;;5.55;;
21354;SDS011;10835;50.148;19.760;2023-08-17T04:07:56;12.50;;;5.60;;
21354;SDS011;10835;50.148;19.760;2023-08-17T04:10:28;7.55;;;6.18;;
21354;SDS011;10835;50.148;19.760;2023-08-17T04:12:58;8.88;;;6.25;;
21354;SDS011;10835;50.148;19.760;2023-08-17T04:15:26;6.65;;;5.95;;
21354;SDS011;10835;50.148;19.760;2023-08-17T04:17:54;11.88;;;5.78;;
21354;SDS011;10835;50.148;19.760;2023-08-17T04:20:23;7.65;;;6.05;;
21354;SDS011;10835;50.148;19.760;2023-08-17T04:22:52;8.82;;;5.07;;
21354;SDS011;10835;50.148;19.760;2023-08-17T04:25:24;6.28;;;5.53;;
21354;SDS011;10835;50.148;19.760;2023-08-17T04:27:58;6.25;;;5.30;;
21354;SDS011;10835;50.148;19.760;2023-08-17T04:30:27;8.95;;;5.68;;
21354;SDS011;10835;50.148;19.760;2023-08-17T04:32:59;7.85;;;5.88;;
21354;SDS011;10835;50.148;19.760;2023-08-17T04:35:28;9.52;;;6.55;;
21354;SDS011;10835;50.148;19.760;2023-08-17T04:37:56;9.00;;;6.10;;
21354;SDS011;10835;50.148;19.760;2023-08-17T04:40:24;12.30;;;7.30;;
21354;SDS011;10835;50.148;19.760;2023-08-17T04:42:56;8.57;;;6.22;;
21354;SDS011;10835;50.148;19.760;2023-08-17T04:45:27;9.30;;;6.15;;
21354;SDS011;10835;50.148;19.760;2023-08-17T04:47:55;7.90;;;6.60;;
21354;SDS011;10835;50.148;19.760;2023-08-17T04:50:24;8.88;;;6.88;;
21354;SDS011;10835;50.148;19.760;2023-08-17T04:52:55;7.88;;;6.18;;
21354;SDS011;10835;50.148;19.760;2023-08-17T04:55:24;10.13;;;6.95;;
21354;SDS011;10835;50.148;19.760;2023-08-17T04:57:57;9.48;;;6.55;;
21354;SDS011;10835;50.148;19.760;2023-08-17T05:00:28;10.77;;;5.88;;
21354;SDS011;10835;50.148;19.760;2023-08-17T05:02:58;9.73;;;6.78;;
21354;SDS011;10835;50.148;19.760;2023-08-17T05:05:32;8.45;;;5.72;;
21354;SDS011;10835;50.148;19.760;2023-08-17T05:08:07;7.68;;;6.07;;
21354;SDS011;10835;50.148;19.760;2023-08-17T05:10:36;10.77;;;6.50;;
21354;SDS011;10835;50.148;19.760;2023-08-17T05:13:05;9.77;;;6.82;;
21354;SDS011;10835;50.148;19.760;2023-08-17T05:15:35;9.15;;;6.93;;
21354;SDS011;10835;50.148;19.760;2023-08-17T05:18:08;7.05;;;5.90;;
21354;SDS011;10835;50.148;19.760;2023-08-17T05:20:37;9.35;;;6.38;;
21354;SDS011;10835;50.148;19.760;2023-08-17T05:23:06;8.73;;;6.80;;
21354;SDS011;10835;50.148;19.760;2023-08-17T05:25:34;9.93;;;6.50;;
21354;SDS011;10835;50.148;19.760;2023-08-17T05:28:03;8.32;;;6.35;;
21354;SDS011;10835;50.148;19.760;2023-08-17T05:30:32;7.43;;;5.88;;
21354;SDS011;10835;50.148;19.760;2023-08-17T05:33:04;11.10;;;6.45;;
21354;SDS011;10835;50.148;19.760;2023-08-17T05:35:33;7.63;;;6.45;;
21354;SDS011;10835;50.148;19.760;2023-08-17T05:38:03;12.35;;;6.18;;
21354;SDS011;10835;50.148;19.760;2023-08-17T05:40:32;9.65;;;6.30;;
21354;SDS011;10835;50.148;19.760;2023-08-17T05:43:03;8.55;;;6.00;;
21354;SDS011;10835;50.148;19.760;2023-08-17T05:45:31;7.45;;;6.07;;
21354;SDS011;10835;50.148;19.760;2023-08-17T05:48:06;6.65;;;5.90;;
21354;SDS011;10835;50.148;19.760;2023-08-17T05:50:34;7.50;;;6.00;;
21354;SDS011;10835;50.148;19.760;2023-08-17T05:53:03;8.07;;;6.63;;
21354;SDS011;10835;50.148;19.760;2023-08-17T05:55:31;8.63;;;6.13;;
21354;SDS011;10835;50.148;19.760;2023-08-17T05:58:00;10.57;;;5.97;;
21354;SDS011;10835;50.148;19.760;2023-08-17T06:00:30;8.95;;;5.63;;
21354;SDS011;10835;50.148;19.760;2023-08-17T06:02:58;10.02;;;6.22;;
21354;SDS011;10835;50.148;19.760;2023-08-17T06:05:30;8.65;;;5.93;;
21354;SDS011;10835;50.148;19.760;2023-08-17T06:08:02;9.73;;;6.05;;
21354;SDS011;10835;50.148;19.760;2023-08-17T06:10:31;8.23;;;6.32;;
21354;SDS011;10835;50.148;19.760;2023-08-17T06:13:09;7.43;;;6.20;;
21354;SDS011;10835;50.148;19.760;2023-08-17T06:15:48;8.57;;;5.95;;
21354;SDS011;10835;50.148;19.760;2023-08-17T06:18:17;9.32;;;5.72;;
21354;SDS011;10835;50.148;19.760;2023-08-17T06:20:49;8.45;;;6.80;;
21354;SDS011;10835;50.148;19.760;2023-08-17T06:23:20;10.35;;;6.60;;
21354;SDS011;10835;50.148;19.760;2023-08-17T06:25:48;8.80;;;6.60;;
21354;SDS011;10835;50.148;19.760;2023-08-17T06:28:17;12.63;;;6.50;;
21354;SDS011;10835;50.148;19.760;2023-08-17T06:30:45;9.48;;;6.35;;
21354;SDS011;10835;50.148;19.760;2023-08-17T06:33:13;8.27;;;6.55;;
21354;SDS011;10835;50.148;19.760;2023-08-17T06:35:42;9.70;;;6.38;;
21354;SDS011;10835;50.148;19.760;2023-08-17T06:38:11;9.65;;;6.60;;
21354;SDS011;10835;50.148;19.760;2023-08-17T06:40:40;12.40;;;6.72;;
21354;SDS011;10835;50.148;19.760;2023-08-17T06:43:08;12.32;;;7.63;;
21354;SDS011;10835;50.148;19.760;2023-08-17T06:45:37;12.95;;;8.13;;
21354;SDS011;10835;50.148;19.760;2023-08-17T06:48:06;9.60;;;6.63;;
21354;SDS011;10835;50.148;19.760;2023-08-17T06:50:37;10.82;;;8.30;;
21354;SDS011;10835;50.148;19.760;2023-08-17T06:53:05;15.20;;;8.90;;
21354;SDS011;10835;50.148;19.760;2023-08-17T06:55:36;13.88;;;8.63;;
21354;SDS011;10835;50.148;19.760;2023-08-17T06:58:05;13.65;;;7.65;;
21354;SDS011;10835;50.148;19.760;2023-08-17T07:00:33;10.02;;;7.90;;
21354;SDS011;10835;50.148;19.760;2023-08-17T07:03:05;11.00;;;7.55;;
21354;SDS011;10835;50.148;19.760;2023-08-17T07:05:34;11.35;;;8.85;;
21354;SDS011;10835;50.148;19.760;2023-08-17T07:08:02;10.60;;;7.32;;
21354;SDS011;10835;50.148;19.760;2023-08-17T07:10:31;9.10;;;7.20;;
21354;SDS011;10835;50.148;19.760;2023-08-17T07:13:03;10.43;;;7.30;;
21354;SDS011;10835;50.148;19.760;2023-08-17T07:15:31;11.80;;;7.82;;
21354;SDS011;10835;50.148;19.760;2023-08-17T07:18:02;16.27;;;8.70;;
21354;SDS011;10835;50.148;19.760;2023-08-17T07:20:30;10.85;;;8.80;;
21354;SDS011;10835;50.148;19.760;2023-08-17T07:22:59;9.57;;;7.45;;
21354;SDS011;10835;50.148;19.760;2023-08-17T07:25:27;10.77;;;7.72;;
21354;SDS011;10835;50.148;19.760;2023-08-17T07:27:56;13.77;;;8.15;;
21354;SDS011;10835;50.148;19.760;2023-08-17T07:30:26;9.52;;;7.60;;
21354;SDS011;10835;50.148;19.760;2023-08-17T07:32:54;8.73;;;6.78;;
21354;SDS011;10835;50.148;19.760;2023-08-17T07:35:24;9.13;;;6.65;;
21354;SDS011;10835;50.148;19.760;2023-08-17T07:37:52;7.85;;;6.78;;
21354;SDS011;10835;50.148;19.760;2023-08-17T07:40:34;9.88;;;7.20;;
21354;SDS011;10835;50.148;19.760;2023-08-17T07:43:03;9.82;;;6.68;;
21354;SDS011;10835;50.148;19.760;2023-08-17T07:45:33;9.60;;;7.85;;
21354;SDS011;10835;50.148;19.760;2023-08-17T07:48:01;10.35;;;6.15;;
21354;SDS011;10835;50.148;19.760;2023-08-17T07:50:29;9.18;;;6.80;;
21354;SDS011;10835;50.148;19.760;2023-08-17T07:52:58;8.50;;;5.75;;
21354;SDS011;10835;50.148;19.760;2023-08-17T07:55:26;6.38;;;5.45;;
21354;SDS011;10835;50.148;19.760;2023-08-17T07:57:57;8.05;;;6.10;;
21354;SDS011;10835;50.148;19.760;2023-08-17T08:00:25;8.27;;;6.97;;
21354;SDS011;10835;50.148;19.760;2023-08-17T08:02:55;7.60;;;6.15;;
21354;SDS011;10835;50.148;19.760;2023-08-17T08:05:23;8.30;;;5.68;;
21354;SDS011;10835;50.148;19.760;2023-08-17T08:07:52;8.50;;;6.20;;
21354;SDS011;10835;50.148;19.760;2023-08-17T08:10:22;6.75;;;5.63;;
21354;SDS011;10835;50.148;19.760;2023-08-17T08:12:51;11.25;;;6.75;;
21354;SDS011;10835;50.148;19.760;2023-08-17T08:15:19;8.15;;;6.20;;
21354;SDS011;10835;50.148;19.760;2023-08-17T08:17:48;8.45;;;5.45;;
21354;SDS011;10835;50.148;19.760;2023-08-17T08:20:18;11.13;;;6.15;;
21354;SDS011;10835;50.148;19.760;2023-08-17T08:22:46;9.80;;;5.90;;
21354;SDS011;10835;50.148;19.760;2023-08-17T08:25:14;9.30;;;6.55;;
21354;SDS011;10835;50.148;19.760;2023-08-17T08:27:43;7.78;;;6.57;;
21354;SDS011;10835;50.148;19.760;2023-08-17T08:30:12;10.18;;;6.07;;
21354;SDS011;10835;50.148;19.760;2023-08-17T08:32:40;7.80;;;5.60;;
21354;SDS011;10835;50.148;19.760;2023-08-17T08:35:09;8.15;;;5.53;;
21354;SDS011;10835;50.148;19.760;2023-08-17T08:37:39;8.38;;;5.85;;
21354;SDS011;10835;50.148;19.760;2023-08-17T08:40:10;10.77;;;6.15;;
21354;SDS011;10835;50.148;19.760;2023-08-17T08:42:40;11.65;;;6.75;;
21354;SDS011;10835;50.148;19.760;2023-08-17T08:45:09;9.77;;;6.45;;
21354;SDS011;10835;50.148;19.760;2023-08-17T08:47:37;7.43;;;6.05;;
21354;SDS011;10835;50.148;19.760;2023-08-17T08:50:08;8.45;;;5.78;;
21354;SDS011;10835;50.148;19.760;2023-08-17T08:52:50;7.40;;;6.07;;
21354;SDS011;10835;50.148;19.760;2023-08-17T08:55:27;9.27;;;6.40;;
21354;SDS011;10835;50.148;19.760;2023-08-17T08:57:57;7.28;;;6.43;;
21354;SDS011;10835;50.148;19.760;2023-08-17T09:00:26;10.45;;;6.15;;
21354;SDS011;10835;50.148;19.760;2023-08-17T09:02:55;10.43;;;6.05;;
21354;SDS011;10835;50.148;19.760;2023-08-17T09:05:24;8.50;;;5.78;;
21354;SDS011;10835;50.148;19.760;2023-08-17T09:07:54;8.20;;;6.20;;
21354;SDS011;10835;50.148;19.760;2023-08-17T09:10:25;7.93;;;5.60;;
21354;SDS011;10835;50.148;19.760;2023-08-17T09:12:57;6.50;;;5.75;;
21354;SDS011;10835;50.148;19.760;2023-08-17T09:15:25;7.35;;;5.88;;
21354;SDS011;10835;50.148;19.760;2023-08-17T09:17:53;7.78;;;5.63;;
21354;SDS011;10835;50.148;19.760;2023-08-17T09:20:35;7.22;;;5.72;;
21354;SDS011;10835;50.148;19.760;2023-08-17T09:23:12;7.43;;;5.70;;
21354;SDS011;10835;50.148;19.760;2023-08-17T09:25:43;7.30;;;5.40;;
21354;SDS011;10835;50.148;19.760;2023-08-17T09:28:13;7.55;;;5.88;;
21354;SDS011;10835;50.148;19.760;2023-08-17T09:30:52;7.00;;;5.90;;
21354;SDS011;10835;50.148;19.760;2023-08-17T09:33:21;6.95;;;5.45;;
21354;SDS011;10835;50.148;19.760;2023-08-17T09:35:51;5.95;;;5.38;;
21354;SDS011;10835;50.148;19.760;2023-08-17T09:38:24;6.47;;;5.78;;
21354;SDS011;10835;50.148;19.760;2023-08-17T09:40:54;7.40;;;5.78;;
21354;SDS011;10835;50.148;19.760;2023-08-17T09:43:24;10.60;;;5.45;;
21354;SDS011;10835;50.148;19.760;2023-08-17T09:45:55;8.23;;;5.68;;
21354;SDS011;10835;50.148;19.760;2023-08-17T09:48:25;6.13;;;5.45;;
21354;SDS011;10835;50.148;19.760;2023-08-17T09:51:00;8.30;;;5.72;;
21354;SDS011;10835;50.148;19.760;2023-08-17T09:53:34;6.95;;;5.68;;
21354;SDS011;10835;50.148;19.760;2023-08-17T09:56:05;6.90;;;5.95;;
21354;SDS011;10835;50.148;19.760;2023-08-17T09:58:42;7.75;;;6.13;;
21354;SDS011;10835;50.148;19.760;2023-08-17T10:01:10;6.35;;;5.75;;
21354;SDS011;10835;50.148;19.760;2023-08-17T10:03:42;7.18;;;6.10;;
21354;SDS011;10835;50.148;19.760;2023-08-17T10:06:12;10.05;;;6.20;;
21354;SDS011;10835;50.148;19.760;2023-08-17T10:08:43;7.65;;;4.90;;
21354;SDS011;10835;50.148;19.760;2023-08-17T10:11:16;6.60;;;4.78;;
21354;SDS011;10835;50.148;19.760;2023-08-17T10:13:48;3.40;;;3.05;;
21354;SDS011;10835;50.148;19.760;2023-08-17T10:16:22;4.97;;;3.33;;
21354;SDS011;10835;50.148;19.760;2023-08-17T10:18:59;3.42;;;2.90;;
21354;SDS011;10835;50.148;19.760;2023-08-17T10:21:36;4.15;;;3.72;;
21354;SDS011;10835;50.148;19.760;2023-08-17T10:24:09;3.70;;;3.28;;
21354;SDS011;10835;50.148;19.760;2023-08-17T10:26:40;4.10;;;3.70;;
21354;SDS011;10835;50.148;19.760;2023-08-17T10:29:09;7.38;;;3.10;;
21354;SDS011;10835;50.148;19.760;2023-08-17T10:31:43;4.07;;;2.88;;
21354;SDS011;10835;50.148;19.760;2023-08-17T10:34:13;8.35;;;3.53;;
21354;SDS011;10835;50.148;19.760;2023-08-17T10:36:41;4.25;;;3.28;;
21354;SDS011;10835;50.148;19.760;2023-08-17T10:39:24;5.55;;;3.55;;
21354;SDS011;10835;50.148;19.760;2023-08-17T10:41:55;4.10;;;3.70;;
21354;SDS011;10835;50.148;19.760;2023-08-17T10:44:38;14.35;;;4.05;;
21354;SDS011;10835;50.148;19.760;2023-08-17T10:47:18;9.48;;;3.83;;
21354;SDS011;10835;50.148;19.760;2023-08-17T10:49:50;6.25;;;3.90;;
21354;SDS011;10835;50.148;19.760;2023-08-17T10:52:26;5.13;;;3.53;;
21354;SDS011;10835;50.148;19.760;2023-08-17T10:54:58;7.47;;;3.75;;
21354;SDS011;10835;50.148;19.760;2023-08-17T10:57:27;5.15;;;3.67;;
21354;SDS011;10835;50.148;19.760;2023-08-17T11:02:54;8.82;;;4.00;;
21354;SDS011;10835;50.148;19.760;2023-08-17T11:05:35;5.47;;;4.03;;
21354;SDS011;10835;50.148;19.760;2023-08-17T11:08:28;8.50;;;3.95;;
21354;SDS011;10835;50.148;19.760;2023-08-17T11:11:03;6.32;;;4.13;;
21354;SDS011;10835;50.148;19.760;2023-08-17T11:13:33;6.10;;;3.97;;
21354;SDS011;10835;50.148;19.760;2023-08-17T11:16:02;10.73;;;4.43;;
21354;SDS011;10835;50.148;19.760;2023-08-17T11:18:32;4.15;;;3.70;;
21354;SDS011;10835;50.148;19.760;2023-08-17T11:21:03;9.85;;;3.85;;
21354;SDS011;10835;50.148;19.760;2023-08-17T11:23:33;8.63;;;3.95;;
21354;SDS011;10835;50.148;19.760;2023-08-17T11:26:04;5.72;;;4.03;;
21354;SDS011;10835;50.148;19.760;2023-08-17T11:28:33;9.52;;;3.35;;
21354;SDS011;10835;50.148;19.760;2023-08-17T11:31:10;6.93;;;3.75;;
21354;SDS011;10835;50.148;19.760;2023-08-17T11:33:40;5.75;;;3.40;;
21354;SDS011;10835;50.148;19.760;2023-08-17T11:36:09;5.90;;;3.15;;
21354;SDS011;10835;50.148;19.760;2023-08-17T11:38:38;5.30;;;3.47;;
21354;SDS011;10835;50.148;19.760;2023-08-17T11:41:09;4.80;;;3.80;;
21354;SDS011;10835;50.148;19.760;2023-08-17T11:43:42;8.65;;;4.20;;
21354;SDS011;10835;50.148;19.760;2023-08-17T11:46:11;7.90;;;3.55;;
21354;SDS011;10835;50.148;19.760;2023-08-17T11:48:40;4.70;;;3.88;;
21354;SDS011;10835;50.148;19.760;2023-08-17T11:51:08;10.10;;;3.70;;
21354;SDS011;10835;50.148;19.760;2023-08-17T11:53:37;6.70;;;3.70;;
21354;SDS011;10835;50.148;19.760;2023-08-17T11:56:06;4.72;;;3.75;;
21354;SDS011;10835;50.148;19.760;2023-08-17T11:58:42;4.80;;;3.17;;
21354;SDS011;10835;50.148;19.760;2023-08-17T12:01:11;5.57;;;3.17;;
21354;SDS011;10835;50.148;19.760;2023-08-17T12:03:43;4.25;;;3.30;;
21354;SDS011;10835;50.148;19.760;2023-08-17T12:06:12;3.72;;;2.70;;
21354;SDS011;10835;50.148;19.760;2023-08-17T12:08:42;6.13;;;3.17;;
21354;SDS011;10835;50.148;19.760;2023-08-17T12:11:13;4.38;;;2.85;;
21354;SDS011;10835;50.148;19.760;2023-08-17T12:13:46;4.60;;;2.40;;
21354;SDS011;10835;50.148;19.760;2023-08-17T12:16:17;3.33;;;2.40;;
21354;SDS011;10835;50.148;19.760;2023-08-17T12:18:47;4.60;;;2.13;;
21354;SDS011;10835;50.148;19.760;2023-08-17T12:21:19;2.35;;;2.10;;
21354;SDS011;10835;50.148;19.760;2023-08-17T12:23:48;4.10;;;2.40;;
21354;SDS011;10835;50.148;19.760;2023-08-17T12:26:20;3.85;;;2.30;;
21354;SDS011;10835;50.148;19.760;2023-08-17T12:28:50;5.35;;;2.65;;
21354;SDS011;10835;50.148;19.760;2023-08-17T12:31:21;4.70;;;2.30;;
21354;SDS011;10835;50.148;19.760;2023-08-17T12:33:50;4.53;;;2.30;;
21354;SDS011;10835;50.148;19.760;2023-08-17T12:36:19;5.15;;;2.15;;
21354;SDS011;10835;50.148;19.760;2023-08-17T12:38:48;8.65;;;2.42;;
21354;SDS011;10835;50.148;19.760;2023-08-17T12:41:17;3.67;;;2.00;;
21354;SDS011;10835;50.148;19.760;2023-08-17T12:43:45;2.83;;;2.30;;
21354;SDS011;10835;50.148;19.760;2023-08-17T12:46:15;4.03;;;2.13;;
21354;SDS011;10835;50.148;19.760;2023-08-17T12:48:44;2.35;;;1.67;;
21354;SDS011;10835;50.148;19.760;2023-08-17T12:51:12;3.05;;;2.00;;
21354;SDS011;10835;50.148;19.760;2023-08-17T12:53:41;2.33;;;1.63;;
21354;SDS011;10835;50.148;19.760;2023-08-17T12:56:15;7.18;;;2.10;;
21354;SDS011;10835;50.148;19.760;2023-08-17T12:58:44;4.80;;;1.70;;
21354;SDS011;10835;50.148;19.760;2023-08-17T13:01:13;4.85;;;1.80;;
21354;SDS011;10835;50.148;19.760;2023-08-17T13:03:45;2.65;;;1.83;;
21354;SDS011;10835;50.148;19.760;2023-08-17T13:06:13;3.30;;;1.75;;
21354;SDS011;10835;50.148;19.760;2023-08-17T13:08:42;5.28;;;1.98;;
21354;SDS011;10835;50.148;19.760;2023-08-17T13:11:10;3.10;;;1.77;;
21354;SDS011;10835;50.148;19.760;2023-08-17T13:13:38;3.55;;;2.40;;
21354;SDS011;10835;50.148;19.760;2023-08-17T13:16:07;3.28;;;2.00;;
21354;SDS011;10835;50.148;19.760;2023-08-17T13:18:38;3.30;;;2.22;;
21354;SDS011;10835;50.148;19.760;2023-08-17T13:21:07;3.15;;;1.80;;
21354;SDS011;10835;50.148;19.760;2023-08-17T13:23:42;2.35;;;2.00;;
21354;SDS011;10835;50.148;19.760;2023-08-17T13:26:10;2.95;;;2.10;;
21354;SDS011;10835;50.148;19.760;2023-08-17T13:28:39;4.10;;;2.00;;
21354;SDS011;10835;50.148;19.760;2023-08-17T13:31:07;4.07;;;1.83;;
21354;SDS011;10835;50.148;19.760;2023-08-17T13:33:51;3.08;;;2.05;;
21354;SDS011;10835;50.148;19.760;2023-08-17T13:36:19;4.53;;;1.92;;
21354;SDS011;10835;50.148;19.760;2023-08-17T13:38:50;3.55;;;2.00;;
21354;SDS011;10835;50.148;19.760;2023-08-17T13:41:19;2.50;;;1.85;;
21354;SDS011;10835;50.148;19.760;2023-08-17T13:43:47;3.30;;;1.83;;
21354;SDS011;10835;50.148;19.760;2023-08-17T13:46:15;6.25;;;2.33;;
21354;SDS011;10835;50.148;19.760;2023-08-17T13:48:43;4.00;;;2.22;;
21354;SDS011;10835;50.148;19.760;2023-08-17T13:51:13;4.65;;;1.70;;
21354;SDS011;10835;50.148;19.760;2023-08-17T13:53:41;1.70;;;1.52;;
21354;SDS011;10835;50.148;19.760;2023-08-17T13:56:10;6.07;;;2.20;;
21354;SDS011;10835;50.148;19.760;2023-08-17T13:58:38;2.75;;;1.85;;
21354;SDS011;10835;50.148;19.760;2023-08-17T14:01:07;4.53;;;1.98;;
21354;SDS011;10835;50.148;19.760;2023-08-17T14:03:38;3.80;;;1.75;;
21354;SDS011;10835;50.148;19.760;2023-08-17T14:06:09;1.92;;;1.80;;
21354;SDS011;10835;50.148;19.760;2023-08-17T14:08:39;3.13;;;1.80;;
21354;SDS011;10835;50.148;19.760;2023-08-17T14:11:07;1.85;;;1.63;;
21354;SDS011;10835;50.148;19.760;2023-08-17T14:13:36;4.43;;;1.85;;
21354;SDS011;10835;50.148;19.760;2023-08-17T14:16:05;2.00;;;1.80;;
21354;SDS011;10835;50.148;19.760;2023-08-17T14:18:33;1.70;;;1.60;;
21354;SDS011;10835;50.148;19.760;2023-08-17T14:21:02;2.92;;;2.05;;
21354;SDS011;10835;50.148;19.760;2023-08-17T14:23:30;2.05;;;1.40;;
21354;SDS011;10835;50.148;19.760;2023-08-17T14:26:00;2.42;;;1.70;;
21354;SDS011;10835;50.148;19.760;2023-08-17T14:28:28;3.55;;;2.00;;
21354;SDS011;10835;50.148;19.760;2023-08-17T14:30:57;3.45;;;2.03;;
21354;SDS011;10835;50.148;19.760;2023-08-17T14:33:25;2.47;;;1.83;;
21354;SDS011;10835;50.148;19.760;2023-08-17T14:35:53;2.47;;;1.90;;
21354;SDS011;10835;50.148;19.760;2023-08-17T14:38:22;2.10;;;1.80;;
21354;SDS011;10835;50.148;19.760;2023-08-17T14:40:57;4.25;;;2.33;;
21354;SDS011;10835;50.148;19.760;2023-08-17T14:43:27;3.85;;;1.80;;
21354;SDS011;10835;50.148;19.760;2023-08-17T14:45:55;7.45;;;2.53;;
21354;SDS011;10835;50.148;19.760;2023-08-17T14:48:24;2.58;;;1.80;;
21354;SDS011;10835;50.148;19.760;2023-08-17T14:50:55;7.15;;;2.60;;
21354;SDS011;10835;50.148;19.760;2023-08-17T14:53:24;5.40;;;2.10;;